TRP340 LPPD-EGSS
Flight info
| Callsign | TRP340 |
|---|---|
| Flight time | 3h 28m |
| Altitude | 35000 |
| Route | BAVAS1R BAVAS DCT 42N019W DCT GONAN DCT TULTA DCT NAKID DCT SIRIC SIRIC1L |
| Aircraft | A321/M-SDE3FGHIRWY/LB1 |
Departure
| Time | 2026-05-08 13:19 |
|---|---|
| Airport | João Paulo II Airport (LPPD) |
Arrival
| Time | 2026-05-08 16:47 |
|---|---|
| Airport | London Stansted Airport (EGSS) |
| Time | Latitude | Longitude | Altitude | Speed | Heading |
|---|---|---|---|---|---|
| 2026-05-08 12:48 | 37.74896 | -25.71190 | 274 ft | 0 kts | 20° |
| 2026-05-08 13:09 | 37.74883 | -25.71196 | 274 ft | 4 kts | 23° |
| 2026-05-08 13:09 | 37.74859 | -25.71210 | 274 ft | 3 kts | 23° |
| 2026-05-08 13:09 | 37.74841 | -25.71217 | 274 ft | 4 kts | 329° |
| 2026-05-08 13:09 | 37.74824 | -25.71196 | 274 ft | 2 kts | 311° |
| 2026-05-08 13:10 | 37.74810 | -25.71171 | 274 ft | 4 kts | 289° |
| 2026-05-08 13:10 | 37.74803 | -25.71139 | 274 ft | 4 kts | 290° |
| 2026-05-08 13:10 | 37.74793 | -25.71107 | 274 ft | 4 kts | 291° |
| 2026-05-08 13:10 | 37.74784 | -25.71076 | 274 ft | 4 kts | 291° |
| 2026-05-08 13:11 | 37.74772 | -25.71045 | 274 ft | 4 kts | 300° |
| 2026-05-08 13:11 | 37.74758 | -25.71016 | 274 ft | 4 kts | 311° |
| 2026-05-08 13:11 | 37.74748 | -25.71003 | 274 ft | 0 kts | 316° |
| 2026-05-08 13:13 | 37.74757 | -25.71008 | 274 ft | 5 kts | 352° |
| 2026-05-08 13:14 | 37.74756 | -25.70950 | 274 ft | 12 kts | 121° |
| 2026-05-08 13:14 | 37.74718 | -25.70853 | 274 ft | 12 kts | 116° |
| 2026-05-08 13:14 | 37.74659 | -25.70799 | 274 ft | 11 kts | 189° |
| 2026-05-08 13:14 | 37.74586 | -25.70827 | 274 ft | 11 kts | 199° |
| 2026-05-08 13:15 | 37.74527 | -25.70796 | 274 ft | 11 kts | 119° |
| 2026-05-08 13:15 | 37.74492 | -25.70694 | 274 ft | 14 kts | 112° |
| 2026-05-08 13:15 | 37.74450 | -25.70563 | 274 ft | 18 kts | 111° |
| 2026-05-08 13:15 | 37.74400 | -25.70396 | 274 ft | 22 kts | 110° |
| 2026-05-08 13:16 | 37.74336 | -25.70197 | 274 ft | 27 kts | 112° |
| 2026-05-08 13:16 | 37.74261 | -25.69965 | 274 ft | 30 kts | 112° |
| 2026-05-08 13:16 | 37.74184 | -25.69722 | 274 ft | 30 kts | 111° |
| 2026-05-08 13:16 | 37.74107 | -25.69481 | 274 ft | 29 kts | 112° |
| 2026-05-08 13:17 | 37.74032 | -25.69246 | 274 ft | 28 kts | 112° |
| 2026-05-08 13:17 | 37.73961 | -25.69015 | 274 ft | 28 kts | 112° |
| 2026-05-08 13:17 | 37.73890 | -25.68792 | 274 ft | 27 kts | 111° |
| 2026-05-08 13:17 | 37.73817 | -25.68575 | 274 ft | 26 kts | 130° |
| 2026-05-08 13:18 | 37.73739 | -25.68440 | 274 ft | 15 kts | 30° |
| 2026-05-08 13:18 | 37.73794 | -25.68497 | 274 ft | 12 kts | 289° |
| 2026-05-08 13:18 | 37.73831 | -25.68621 | 274 ft | 31 kts | 293° |
| 2026-05-08 13:18 | 37.74007 | -25.69166 | 274 ft | 102 kts | 293° |
| 2026-05-08 13:19 | 37.74342 | -25.70235 | 305 ft | 157 kts | 295° |
| 2026-05-08 13:19 | 37.74690 | -25.71585 | 977 ft | 163 kts | 288° |
| 2026-05-08 13:19 | 37.74619 | -25.73059 | 1703 ft | 181 kts | 261° |
| 2026-05-08 13:19 | 37.74144 | -25.74593 | 2371 ft | 191 kts | 259° |
| 2026-05-08 13:20 | 37.73932 | -25.76242 | 2778 ft | 192 kts | 273° |
| 2026-05-08 13:20 | 37.73856 | -25.77963 | 3122 ft | 199 kts | 279° |
| 2026-05-08 13:20 | 37.74239 | -25.79617 | 3411 ft | 199 kts | 303° |
| 2026-05-08 13:20 | 37.75112 | -25.81045 | 3673 ft | 213 kts | 321° |
| 2026-05-08 13:21 | 37.76426 | -25.82103 | 3904 ft | 236 kts | 334° |
| 2026-05-08 13:21 | 37.77385 | -25.82734 | 4491 ft | 232 kts | 334° |
| 2026-05-08 13:21 | 37.78834 | -25.83686 | 5262 ft | 239 kts | 334° |
| 2026-05-08 13:21 | 37.80314 | -25.84657 | 6085 ft | 240 kts | 335° |
| 2026-05-08 13:22 | 37.81821 | -25.85640 | 6828 ft | 245 kts | 336° |
| 2026-05-08 13:22 | 37.83463 | -25.86188 | 7552 ft | 246 kts | 357° |
| 2026-05-08 13:22 | 37.85157 | -25.85814 | 8245 ft | 253 kts | 21° |
| 2026-05-08 13:22 | 37.86593 | -25.84478 | 8907 ft | 264 kts | 44° |
| 2026-05-08 13:23 | 37.87738 | -25.82645 | 9604 ft | 268 kts | 48° |
| 2026-05-08 13:23 | 37.88844 | -25.80718 | 10246 ft | 273 kts | 49° |
| 2026-05-08 13:23 | 37.89981 | -25.78676 | 10430 ft | 295 kts | 49° |
| 2026-05-08 13:23 | 37.91199 | -25.76456 | 10550 ft | 317 kts | 50° |
| 2026-05-08 13:24 | 37.92453 | -25.74142 | 11173 ft | 319 kts | 50° |
| 2026-05-08 13:24 | 37.93710 | -25.71811 | 11777 ft | 323 kts | 50° |
| 2026-05-08 13:24 | 37.94982 | -25.69448 | 12378 ft | 325 kts | 50° |
| 2026-05-08 13:24 | 37.96261 | -25.67071 | 12971 ft | 328 kts | 49° |
| 2026-05-08 13:25 | 37.97553 | -25.64669 | 13529 ft | 331 kts | 49° |
| 2026-05-08 13:25 | 37.98850 | -25.62255 | 14095 ft | 333 kts | 49° |
| 2026-05-08 13:25 | 38.00158 | -25.59817 | 14643 ft | 335 kts | 49° |
| 2026-05-08 13:25 | 38.01478 | -25.57357 | 15134 ft | 339 kts | 49° |
| 2026-05-08 13:26 | 38.02806 | -25.54879 | 15670 ft | 341 kts | 49° |
| 2026-05-08 13:26 | 38.04143 | -25.52380 | 16171 ft | 343 kts | 49° |
| 2026-05-08 13:26 | 38.05490 | -25.49863 | 16655 ft | 346 kts | 48° |
| 2026-05-08 13:26 | 38.06842 | -25.47333 | 17138 ft | 348 kts | 48° |
| 2026-05-08 13:27 | 38.08207 | -25.44779 | 17579 ft | 351 kts | 48° |
| 2026-05-08 13:27 | 38.09579 | -25.42207 | 18064 ft | 353 kts | 48° |
| 2026-05-08 13:27 | 38.10963 | -25.39612 | 18527 ft | 355 kts | 48° |
| 2026-05-08 13:27 | 38.12354 | -25.37003 | 18972 ft | 358 kts | 48° |
| 2026-05-08 13:28 | 38.13753 | -25.34376 | 19421 ft | 360 kts | 48° |
| 2026-05-08 13:28 | 38.15162 | -25.31726 | 19832 ft | 364 kts | 48° |
| 2026-05-08 13:28 | 38.16563 | -25.29090 | 20277 ft | 365 kts | 48° |
| 2026-05-08 13:28 | 38.17990 | -25.26404 | 20691 ft | 368 kts | 48° |
| 2026-05-08 13:29 | 38.19425 | -25.23700 | 21115 ft | 370 kts | 48° |
| 2026-05-08 13:29 | 38.20870 | -25.20974 | 21528 ft | 372 kts | 48° |
| 2026-05-08 13:29 | 38.22321 | -25.18236 | 21918 ft | 375 kts | 48° |
| 2026-05-08 13:29 | 38.23784 | -25.15472 | 22304 ft | 377 kts | 48° |
| 2026-05-08 13:30 | 38.25252 | -25.12696 | 22661 ft | 380 kts | 48° |
| 2026-05-08 13:30 | 38.26728 | -25.09902 | 23061 ft | 381 kts | 48° |
| 2026-05-08 13:30 | 38.28210 | -25.07095 | 23430 ft | 383 kts | 48° |
| 2026-05-08 13:30 | 38.29700 | -25.04271 | 23778 ft | 385 kts | 48° |
| 2026-05-08 13:31 | 38.31198 | -25.01428 | 24127 ft | 387 kts | 48° |
| 2026-05-08 13:31 | 38.32702 | -24.98572 | 24460 ft | 389 kts | 48° |
| 2026-05-08 13:31 | 38.34213 | -24.95699 | 24795 ft | 391 kts | 48° |
| 2026-05-08 13:31 | 38.35728 | -24.92817 | 25126 ft | 392 kts | 48° |
| 2026-05-08 13:32 | 38.37249 | -24.89919 | 25446 ft | 394 kts | 48° |
| 2026-05-08 13:32 | 38.38774 | -24.87012 | 25762 ft | 395 kts | 48° |
| 2026-05-08 13:32 | 38.40305 | -24.84091 | 26065 ft | 397 kts | 48° |
| 2026-05-08 13:32 | 38.41842 | -24.81157 | 26375 ft | 398 kts | 48° |
| 2026-05-08 13:33 | 38.43376 | -24.78225 | 26690 ft | 399 kts | 47° |
| 2026-05-08 13:33 | 38.44924 | -24.75266 | 26893 ft | 402 kts | 47° |
| 2026-05-08 13:33 | 38.46479 | -24.72288 | 27181 ft | 403 kts | 47° |
| 2026-05-08 13:33 | 38.48030 | -24.69315 | 27446 ft | 404 kts | 47° |
| 2026-05-08 13:34 | 38.49591 | -24.66319 | 27702 ft | 405 kts | 47° |
| 2026-05-08 13:34 | 38.51130 | -24.63364 | 27965 ft | 406 kts | 47° |
| 2026-05-08 13:34 | 38.52687 | -24.60369 | 28298 ft | 405 kts | 47° |
| 2026-05-08 13:34 | 38.54248 | -24.57367 | 28502 ft | 407 kts | 47° |
| 2026-05-08 13:35 | 38.55816 | -24.54349 | 28736 ft | 407 kts | 47° |
| 2026-05-08 13:35 | 38.57383 | -24.51330 | 28950 ft | 409 kts | 47° |
| 2026-05-08 13:35 | 38.58955 | -24.48297 | 29167 ft | 410 kts | 47° |
| 2026-05-08 13:35 | 38.60530 | -24.45255 | 29379 ft | 411 kts | 47° |
| 2026-05-08 13:36 | 38.62108 | -24.42206 | 29579 ft | 412 kts | 47° |
| 2026-05-08 13:36 | 38.63692 | -24.39142 | 29788 ft | 413 kts | 47° |
| 2026-05-08 13:36 | 38.65276 | -24.36073 | 29977 ft | 414 kts | 47° |
| 2026-05-08 13:36 | 38.66864 | -24.32996 | 30173 ft | 415 kts | 47° |
| 2026-05-08 13:37 | 38.68458 | -24.29904 | 30347 ft | 416 kts | 47° |
| 2026-05-08 13:37 | 38.70053 | -24.26807 | 30527 ft | 417 kts | 47° |
| 2026-05-08 13:37 | 38.71652 | -24.23699 | 30701 ft | 419 kts | 47° |
| 2026-05-08 13:37 | 38.73254 | -24.20583 | 30872 ft | 420 kts | 47° |
| 2026-05-08 13:38 | 38.74862 | -24.17449 | 31038 ft | 421 kts | 47° |
| 2026-05-08 13:38 | 38.76474 | -24.14308 | 31191 ft | 423 kts | 47° |
| 2026-05-08 13:38 | 38.78090 | -24.11155 | 31363 ft | 424 kts | 47° |
| 2026-05-08 13:38 | 38.79707 | -24.07995 | 31528 ft | 425 kts | 47° |
| 2026-05-08 13:39 | 38.81328 | -24.04826 | 31685 ft | 426 kts | 47° |
| 2026-05-08 13:39 | 38.82954 | -24.01643 | 31842 ft | 427 kts | 47° |
| 2026-05-08 13:39 | 38.84583 | -23.98453 | 31995 ft | 428 kts | 47° |
| 2026-05-08 13:39 | 38.86212 | -23.95259 | 32175 ft | 428 kts | 48° |
| 2026-05-08 13:40 | 38.87845 | -23.92052 | 32298 ft | 430 kts | 48° |
| 2026-05-08 13:40 | 38.89481 | -23.88836 | 32441 ft | 430 kts | 48° |
| 2026-05-08 13:40 | 38.91115 | -23.85621 | 32617 ft | 430 kts | 48° |
| 2026-05-08 13:40 | 38.92753 | -23.82394 | 32817 ft | 430 kts | 48° |
| 2026-05-08 13:41 | 38.94382 | -23.79182 | 33006 ft | 429 kts | 48° |
| 2026-05-08 13:41 | 38.96014 | -23.75962 | 33176 ft | 429 kts | 48° |
| 2026-05-08 13:41 | 38.97642 | -23.72745 | 33351 ft | 429 kts | 48° |
| 2026-05-08 13:41 | 38.99249 | -23.69569 | 33520 ft | 429 kts | 48° |
| 2026-05-08 13:42 | 39.01034 | -23.66487 | 33686 ft | 421 kts | 41° |
| 2026-05-08 13:42 | 39.02892 | -23.63644 | 33869 ft | 420 kts | 41° |
| 2026-05-08 13:42 | 39.04798 | -23.60802 | 34036 ft | 419 kts | 40° |
| 2026-05-08 13:42 | 39.06718 | -23.57982 | 34192 ft | 419 kts | 40° |
| 2026-05-08 13:43 | 39.08644 | -23.55171 | 34313 ft | 419 kts | 40° |
| 2026-05-08 13:43 | 39.10580 | -23.52349 | 34462 ft | 420 kts | 40° |
| 2026-05-08 13:43 | 39.12514 | -23.49533 | 34572 ft | 421 kts | 40° |
| 2026-05-08 13:43 | 39.14455 | -23.46707 | 34710 ft | 421 kts | 40° |
| 2026-05-08 13:44 | 39.16388 | -23.43890 | 34917 ft | 420 kts | 40° |
| 2026-05-08 13:44 | 39.18333 | -23.41059 | 34983 ft | 423 kts | 40° |
| 2026-05-08 13:44 | 39.22243 | -23.35355 | 35004 ft | 424 kts | 41° |
| 2026-05-08 13:45 | 39.26152 | -23.29643 | 35003 ft | 424 kts | 41° |
| 2026-05-08 13:45 | 39.30057 | -23.23926 | 35002 ft | 425 kts | 41° |
| 2026-05-08 13:46 | 39.33958 | -23.18205 | 35002 ft | 425 kts | 41° |
| 2026-05-08 13:46 | 39.37850 | -23.12486 | 35002 ft | 424 kts | 41° |
| 2026-05-08 13:47 | 39.41748 | -23.06749 | 35002 ft | 424 kts | 41° |
| 2026-05-08 13:47 | 39.45638 | -23.01012 | 35003 ft | 425 kts | 41° |
| 2026-05-08 13:48 | 39.49529 | -22.95262 | 35002 ft | 425 kts | 41° |
| 2026-05-08 13:48 | 39.53420 | -22.89502 | 35003 ft | 425 kts | 41° |
| 2026-05-08 13:49 | 39.57315 | -22.83725 | 35002 ft | 426 kts | 41° |
| 2026-05-08 13:49 | 39.61183 | -22.77979 | 35003 ft | 426 kts | 42° |
| 2026-05-08 13:50 | 39.65079 | -22.72178 | 35004 ft | 426 kts | 42° |
| 2026-05-08 13:50 | 39.68970 | -22.66374 | 35004 ft | 427 kts | 42° |
| 2026-05-08 13:51 | 39.72873 | -22.60543 | 35002 ft | 427 kts | 42° |
| 2026-05-08 13:51 | 39.76768 | -22.54710 | 35002 ft | 427 kts | 42° |
| 2026-05-08 13:52 | 39.80668 | -22.48860 | 34973 ft | 428 kts | 43° |
| 2026-05-08 13:52 | 39.84557 | -22.43013 | 34968 ft | 428 kts | 43° |
| 2026-05-08 13:53 | 39.88435 | -22.37176 | 34967 ft | 428 kts | 43° |
| 2026-05-08 13:53 | 39.92327 | -22.31302 | 34966 ft | 428 kts | 43° |
| 2026-05-08 13:54 | 39.96218 | -22.25421 | 34966 ft | 428 kts | 43° |
| 2026-05-08 13:54 | 40.00111 | -22.19526 | 34965 ft | 429 kts | 43° |
| 2026-05-08 13:55 | 40.03997 | -22.13628 | 34964 ft | 429 kts | 43° |
| 2026-05-08 13:56 | 40.09827 | -22.04760 | 34963 ft | 429 kts | 43° |
| 2026-05-08 13:56 | 40.13712 | -21.98837 | 34962 ft | 429 kts | 43° |
| 2026-05-08 13:57 | 40.17560 | -21.92958 | 34961 ft | 429 kts | 43° |
| 2026-05-08 13:57 | 40.21440 | -21.87019 | 34961 ft | 430 kts | 43° |
| 2026-05-08 13:58 | 40.25320 | -21.81069 | 34960 ft | 430 kts | 43° |
| 2026-05-08 13:58 | 40.29207 | -21.75098 | 34959 ft | 431 kts | 43° |
| 2026-05-08 13:59 | 40.33091 | -21.69118 | 34958 ft | 431 kts | 44° |
| 2026-05-08 13:59 | 40.36981 | -21.63118 | 34958 ft | 433 kts | 44° |
| 2026-05-08 14:00 | 40.40875 | -21.57100 | 34957 ft | 433 kts | 44° |
| 2026-05-08 14:00 | 40.44774 | -21.51062 | 34956 ft | 434 kts | 44° |
| 2026-05-08 14:01 | 40.48688 | -21.44989 | 34955 ft | 435 kts | 44° |
| 2026-05-08 14:01 | 40.52599 | -21.38909 | 34957 ft | 436 kts | 44° |
| 2026-05-08 14:02 | 40.56518 | -21.32805 | 34958 ft | 437 kts | 44° |
| 2026-05-08 14:02 | 40.60438 | -21.26685 | 34957 ft | 438 kts | 44° |
| 2026-05-08 14:03 | 40.64344 | -21.20576 | 34956 ft | 439 kts | 45° |
| 2026-05-08 14:03 | 40.68297 | -21.14381 | 34956 ft | 440 kts | 45° |
| 2026-05-08 14:04 | 40.72208 | -21.08240 | 34955 ft | 440 kts | 45° |
| 2026-05-08 14:04 | 40.76142 | -21.02050 | 34955 ft | 441 kts | 45° |
| 2026-05-08 14:05 | 40.80084 | -20.95834 | 34954 ft | 442 kts | 45° |
| 2026-05-08 14:05 | 40.84027 | -20.89603 | 34953 ft | 442 kts | 45° |
| 2026-05-08 14:06 | 40.87965 | -20.83368 | 34952 ft | 442 kts | 45° |
| 2026-05-08 14:06 | 40.91914 | -20.77104 | 34952 ft | 443 kts | 45° |
| 2026-05-08 14:07 | 40.95858 | -20.70835 | 34951 ft | 444 kts | 46° |
| 2026-05-08 14:07 | 40.99133 | -20.65618 | 34950 ft | 444 kts | 46° |
| 2026-05-08 14:08 | 41.03084 | -20.59314 | 34950 ft | 445 kts | 46° |
| 2026-05-08 14:08 | 41.07677 | -20.51966 | 34949 ft | 445 kts | 46° |
| 2026-05-08 14:09 | 41.10988 | -20.46661 | 34949 ft | 445 kts | 46° |
| 2026-05-08 14:09 | 41.14910 | -20.40362 | 34948 ft | 446 kts | 46° |
| 2026-05-08 14:10 | 41.18860 | -20.34007 | 34947 ft | 447 kts | 47° |
| 2026-05-08 14:10 | 41.22815 | -20.27629 | 34947 ft | 447 kts | 47° |
| 2026-05-08 14:11 | 41.26773 | -20.21233 | 34945 ft | 448 kts | 47° |
| 2026-05-08 14:11 | 41.30731 | -20.14825 | 34944 ft | 449 kts | 47° |
| 2026-05-08 14:12 | 41.34694 | -20.08394 | 34944 ft | 449 kts | 47° |
| 2026-05-08 14:12 | 41.38655 | -20.01952 | 34943 ft | 450 kts | 47° |
| 2026-05-08 14:13 | 41.42618 | -19.95496 | 34942 ft | 450 kts | 48° |
| 2026-05-08 14:13 | 41.46590 | -19.89007 | 34942 ft | 452 kts | 48° |
| 2026-05-08 14:14 | 41.50559 | -19.82510 | 34941 ft | 452 kts | 48° |
| 2026-05-08 14:14 | 41.54527 | -19.76000 | 34940 ft | 452 kts | 48° |
| 2026-05-08 14:15 | 41.58488 | -19.69490 | 34931 ft | 452 kts | 48° |
| 2026-05-08 14:15 | 41.62450 | -19.62963 | 34919 ft | 452 kts | 48° |
| 2026-05-08 14:16 | 41.66385 | -19.56466 | 34918 ft | 452 kts | 48° |
| 2026-05-08 14:16 | 41.70344 | -19.49917 | 34918 ft | 452 kts | 49° |
| 2026-05-08 14:17 | 41.74295 | -19.43364 | 34917 ft | 452 kts | 49° |
| 2026-05-08 14:17 | 41.78244 | -19.36802 | 34917 ft | 452 kts | 49° |
| 2026-05-08 14:18 | 41.82190 | -19.30231 | 34916 ft | 452 kts | 49° |
| 2026-05-08 14:18 | 41.86139 | -19.23639 | 34916 ft | 452 kts | 49° |
| 2026-05-08 14:19 | 41.90078 | -19.17052 | 34916 ft | 453 kts | 49° |
| 2026-05-08 14:19 | 41.94012 | -19.10457 | 34915 ft | 453 kts | 49° |
| 2026-05-08 14:20 | 41.97924 | -19.03884 | 34915 ft | 453 kts | 49° |
| 2026-05-08 14:20 | 42.01893 | -18.97307 | 34914 ft | 453 kts | 48° |
| 2026-05-08 14:21 | 42.06021 | -18.90862 | 34914 ft | 457 kts | 47° |
| 2026-05-08 14:21 | 42.10199 | -18.84413 | 34914 ft | 456 kts | 47° |
| 2026-05-08 14:22 | 42.14377 | -18.77970 | 34913 ft | 457 kts | 47° |
| 2026-05-08 14:22 | 42.18558 | -18.71517 | 34913 ft | 457 kts | 48° |
| 2026-05-08 14:23 | 42.22728 | -18.65067 | 34913 ft | 457 kts | 48° |
| 2026-05-08 14:23 | 42.26908 | -18.58590 | 34912 ft | 457 kts | 48° |
| 2026-05-08 14:24 | 42.31086 | -18.52101 | 34912 ft | 457 kts | 48° |
| 2026-05-08 14:24 | 42.35227 | -18.45657 | 34912 ft | 457 kts | 48° |
| 2026-05-08 14:25 | 42.39394 | -18.39155 | 34911 ft | 457 kts | 48° |
| 2026-05-08 14:25 | 42.43555 | -18.32647 | 34911 ft | 457 kts | 48° |
| 2026-05-08 14:26 | 42.47717 | -18.26125 | 34911 ft | 457 kts | 48° |
| 2026-05-08 14:26 | 42.51873 | -18.19597 | 34910 ft | 457 kts | 48° |
| 2026-05-08 14:27 | 42.56027 | -18.13057 | 34915 ft | 457 kts | 49° |
| 2026-05-08 14:27 | 42.60173 | -18.06515 | 34915 ft | 458 kts | 49° |
| 2026-05-08 14:28 | 42.64323 | -17.99951 | 34915 ft | 458 kts | 49° |
| 2026-05-08 14:28 | 42.68436 | -17.93436 | 34914 ft | 457 kts | 49° |
| 2026-05-08 14:29 | 42.72572 | -17.86862 | 34914 ft | 458 kts | 49° |
| 2026-05-08 14:29 | 42.76712 | -17.80270 | 34913 ft | 458 kts | 49° |
| 2026-05-08 14:30 | 42.80839 | -17.73682 | 34912 ft | 458 kts | 49° |
| 2026-05-08 14:30 | 42.84983 | -17.67054 | 34912 ft | 459 kts | 49° |
| 2026-05-08 14:31 | 42.89119 | -17.60423 | 34911 ft | 459 kts | 50° |
| 2026-05-08 14:31 | 42.93247 | -17.53791 | 34911 ft | 459 kts | 50° |
| 2026-05-08 14:32 | 42.99418 | -17.43846 | 34910 ft | 459 kts | 50° |
| 2026-05-08 14:32 | 43.03539 | -17.37186 | 34909 ft | 459 kts | 50° |
| 2026-05-08 14:33 | 43.07671 | -17.30493 | 34909 ft | 460 kts | 50° |
| 2026-05-08 14:33 | 43.11791 | -17.23805 | 34908 ft | 460 kts | 50° |
| 2026-05-08 14:34 | 43.15906 | -17.17109 | 34908 ft | 460 kts | 50° |
| 2026-05-08 14:34 | 43.20025 | -17.10391 | 34907 ft | 461 kts | 50° |
| 2026-05-08 14:35 | 43.24144 | -17.03656 | 34907 ft | 460 kts | 50° |
| 2026-05-08 14:35 | 43.28254 | -16.96922 | 34907 ft | 461 kts | 51° |
| 2026-05-08 14:36 | 43.32369 | -16.90163 | 34906 ft | 461 kts | 51° |
| 2026-05-08 14:36 | 43.36482 | -16.83392 | 34906 ft | 462 kts | 51° |
| 2026-05-08 14:37 | 43.40564 | -16.76657 | 34905 ft | 461 kts | 51° |
| 2026-05-08 14:37 | 43.44674 | -16.69859 | 34905 ft | 462 kts | 51° |
| 2026-05-08 14:38 | 43.48782 | -16.63048 | 34904 ft | 462 kts | 51° |
| 2026-05-08 14:38 | 43.52888 | -16.56225 | 34904 ft | 463 kts | 51° |
| 2026-05-08 14:39 | 43.56991 | -16.49392 | 34903 ft | 463 kts | 51° |
| 2026-05-08 14:39 | 43.61101 | -16.42529 | 34890 ft | 463 kts | 51° |
| 2026-05-08 14:40 | 43.65200 | -16.35669 | 34883 ft | 464 kts | 52° |
| 2026-05-08 14:40 | 43.69300 | -16.28791 | 34882 ft | 464 kts | 52° |
| 2026-05-08 14:41 | 43.73402 | -16.21892 | 34882 ft | 464 kts | 52° |
| 2026-05-08 14:41 | 43.77501 | -16.14984 | 34882 ft | 464 kts | 52° |
| 2026-05-08 14:42 | 43.81595 | -16.08066 | 34882 ft | 465 kts | 52° |
| 2026-05-08 14:42 | 43.85663 | -16.01176 | 34882 ft | 465 kts | 52° |
| 2026-05-08 14:43 | 43.89754 | -15.94230 | 34882 ft | 465 kts | 52° |
| 2026-05-08 14:43 | 43.93838 | -15.87280 | 34882 ft | 465 kts | 52° |
| 2026-05-08 14:44 | 43.97914 | -15.80326 | 34903 ft | 464 kts | 52° |
| 2026-05-08 14:44 | 44.01991 | -15.73355 | 34920 ft | 465 kts | 52° |
| 2026-05-08 14:45 | 44.06061 | -15.66379 | 34921 ft | 464 kts | 52° |
| 2026-05-08 14:45 | 44.10122 | -15.59401 | 34922 ft | 464 kts | 53° |
| 2026-05-08 14:46 | 44.14178 | -15.52413 | 34922 ft | 463 kts | 53° |
| 2026-05-08 14:46 | 44.18202 | -15.45466 | 34922 ft | 464 kts | 53° |
| 2026-05-08 14:47 | 44.22250 | -15.38459 | 34922 ft | 463 kts | 53° |
| 2026-05-08 14:47 | 44.26294 | -15.31443 | 34922 ft | 463 kts | 53° |
| 2026-05-08 14:48 | 44.30325 | -15.24431 | 34923 ft | 463 kts | 54° |
| 2026-05-08 14:48 | 44.34352 | -15.17410 | 34922 ft | 463 kts | 54° |
| 2026-05-08 14:49 | 44.38370 | -15.10385 | 34921 ft | 462 kts | 54° |
| 2026-05-08 14:49 | 44.42382 | -15.03357 | 34921 ft | 462 kts | 54° |
| 2026-05-08 14:50 | 44.46389 | -14.96318 | 34921 ft | 462 kts | 54° |
| 2026-05-08 14:50 | 44.50390 | -14.89273 | 34921 ft | 462 kts | 55° |
| 2026-05-08 14:51 | 44.54387 | -14.82218 | 34921 ft | 462 kts | 55° |
| 2026-05-08 14:51 | 44.58374 | -14.75162 | 34921 ft | 462 kts | 55° |
| 2026-05-08 14:52 | 44.64348 | -14.64558 | 34921 ft | 462 kts | 55° |
| 2026-05-08 14:53 | 44.68320 | -14.57488 | 34921 ft | 461 kts | 56° |
| 2026-05-08 14:53 | 44.72266 | -14.50444 | 34921 ft | 461 kts | 56° |
| 2026-05-08 14:54 | 44.76229 | -14.43353 | 34921 ft | 460 kts | 56° |
| 2026-05-08 14:54 | 44.80183 | -14.36261 | 34921 ft | 461 kts | 56° |
| 2026-05-08 14:55 | 44.84135 | -14.29155 | 34921 ft | 460 kts | 56° |
| 2026-05-08 14:55 | 44.88078 | -14.22046 | 34918 ft | 461 kts | 56° |
| 2026-05-08 14:56 | 44.92022 | -14.14920 | 34918 ft | 461 kts | 56° |
| 2026-05-08 14:56 | 44.95961 | -14.07784 | 34918 ft | 460 kts | 57° |
| 2026-05-08 14:57 | 44.99893 | -14.00657 | 34918 ft | 461 kts | 56° |
| 2026-05-08 14:57 | 45.03414 | -13.94992 | 34919 ft | 461 kts | 52° |
| 2026-05-08 14:58 | 45.07793 | -13.88325 | 34919 ft | 464 kts | 52° |
| 2026-05-08 14:58 | 45.12195 | -13.81653 | 34918 ft | 463 kts | 52° |
| 2026-05-08 14:59 | 45.16590 | -13.74986 | 34919 ft | 463 kts | 52° |
| 2026-05-08 14:59 | 45.23172 | -13.64979 | 34919 ft | 462 kts | 53° |
| 2026-05-08 15:00 | 45.27551 | -13.58302 | 34919 ft | 462 kts | 53° |
| 2026-05-08 15:00 | 45.31908 | -13.51642 | 34919 ft | 462 kts | 53° |
| 2026-05-08 15:01 | 45.36280 | -13.44942 | 34920 ft | 462 kts | 53° |
| 2026-05-08 15:01 | 45.40651 | -13.38227 | 34920 ft | 462 kts | 53° |
| 2026-05-08 15:02 | 45.45022 | -13.31496 | 34920 ft | 462 kts | 53° |
| 2026-05-08 15:02 | 45.49385 | -13.24759 | 34921 ft | 462 kts | 53° |
| 2026-05-08 15:03 | 45.53745 | -13.18011 | 34921 ft | 462 kts | 53° |
| 2026-05-08 15:03 | 45.58099 | -13.11254 | 34921 ft | 462 kts | 53° |
| 2026-05-08 15:04 | 45.62447 | -13.04491 | 34921 ft | 462 kts | 53° |
| 2026-05-08 15:04 | 45.66789 | -12.97719 | 34922 ft | 462 kts | 53° |
| 2026-05-08 15:05 | 45.71102 | -12.90975 | 34922 ft | 463 kts | 53° |
| 2026-05-08 15:05 | 45.75446 | -12.84167 | 34922 ft | 463 kts | 53° |
| 2026-05-08 15:06 | 45.79787 | -12.77346 | 34923 ft | 463 kts | 53° |
| 2026-05-08 15:06 | 45.84116 | -12.70527 | 34924 ft | 463 kts | 53° |
| 2026-05-08 15:07 | 45.88448 | -12.63685 | 34924 ft | 464 kts | 53° |
| 2026-05-08 15:07 | 45.92787 | -12.56816 | 34925 ft | 463 kts | 54° |
| 2026-05-08 15:08 | 45.96382 | -12.51111 | 34925 ft | 464 kts | 54° |
| 2026-05-08 15:08 | 46.01442 | -12.43061 | 34925 ft | 464 kts | 54° |
| 2026-05-08 15:09 | 46.05783 | -12.36136 | 34926 ft | 466 kts | 54° |
| 2026-05-08 15:09 | 46.10115 | -12.29207 | 34926 ft | 465 kts | 54° |
| 2026-05-08 15:10 | 46.14439 | -12.22274 | 34927 ft | 464 kts | 54° |
| 2026-05-08 15:10 | 46.18752 | -12.15340 | 34928 ft | 464 kts | 54° |
| 2026-05-08 15:11 | 46.23036 | -12.08436 | 34928 ft | 465 kts | 54° |
| 2026-05-08 15:11 | 46.27342 | -12.01479 | 34929 ft | 464 kts | 54° |
| 2026-05-08 15:12 | 46.31651 | -11.94497 | 34929 ft | 465 kts | 54° |
| 2026-05-08 15:12 | 46.35954 | -11.87510 | 34930 ft | 465 kts | 54° |
| 2026-05-08 15:13 | 46.40256 | -11.80504 | 34930 ft | 466 kts | 54° |
| 2026-05-08 15:13 | 46.44557 | -11.73483 | 34931 ft | 465 kts | 54° |
| 2026-05-08 15:14 | 46.48854 | -11.66450 | 34933 ft | 466 kts | 54° |
| 2026-05-08 15:14 | 46.53129 | -11.59434 | 34933 ft | 466 kts | 54° |
| 2026-05-08 15:15 | 46.57407 | -11.52399 | 34925 ft | 460 kts | 54° |
| 2026-05-08 15:15 | 46.61622 | -11.45444 | 34925 ft | 459 kts | 54° |
| 2026-05-08 15:16 | 46.65846 | -11.38458 | 34927 ft | 460 kts | 54° |
| 2026-05-08 15:16 | 46.70071 | -11.31455 | 34928 ft | 460 kts | 54° |
| 2026-05-08 15:17 | 46.74292 | -11.24439 | 34929 ft | 460 kts | 54° |
| 2026-05-08 15:17 | 46.78506 | -11.17415 | 34930 ft | 460 kts | 54° |
| 2026-05-08 15:18 | 46.82720 | -11.10372 | 34931 ft | 461 kts | 54° |
| 2026-05-08 15:18 | 46.86934 | -11.03314 | 34932 ft | 461 kts | 54° |
| 2026-05-08 15:19 | 46.91146 | -10.96239 | 34934 ft | 461 kts | 54° |
| 2026-05-08 15:19 | 46.95350 | -10.89160 | 34935 ft | 461 kts | 54° |
| 2026-05-08 15:20 | 46.99524 | -10.82111 | 34936 ft | 461 kts | 54° |
| 2026-05-08 15:20 | 47.03721 | -10.75005 | 34938 ft | 461 kts | 54° |
| 2026-05-08 15:21 | 47.07918 | -10.67883 | 34939 ft | 461 kts | 54° |
| 2026-05-08 15:21 | 47.12110 | -10.60749 | 34939 ft | 461 kts | 54° |
| 2026-05-08 15:22 | 47.16304 | -10.53594 | 34940 ft | 462 kts | 55° |
| 2026-05-08 15:22 | 47.20491 | -10.46430 | 34942 ft | 462 kts | 55° |
| 2026-05-08 15:23 | 47.24681 | -10.39243 | 34944 ft | 463 kts | 55° |
| 2026-05-08 15:23 | 47.28843 | -10.32084 | 34946 ft | 463 kts | 55° |
| 2026-05-08 15:24 | 47.33033 | -10.24859 | 34947 ft | 463 kts | 55° |
| 2026-05-08 15:24 | 47.37219 | -10.17621 | 34949 ft | 464 kts | 55° |
| 2026-05-08 15:25 | 47.41399 | -10.10372 | 34951 ft | 464 kts | 55° |
| 2026-05-08 15:25 | 47.45584 | -10.03099 | 34953 ft | 464 kts | 55° |
| 2026-05-08 15:26 | 47.49762 | -9.95815 | 34955 ft | 464 kts | 55° |
| 2026-05-08 15:26 | 47.53938 | -9.88517 | 34957 ft | 464 kts | 55° |
| 2026-05-08 15:27 | 47.58106 | -9.81212 | 34959 ft | 465 kts | 55° |
| 2026-05-08 15:27 | 47.62274 | -9.73888 | 34961 ft | 465 kts | 55° |
| 2026-05-08 15:28 | 47.66439 | -9.66548 | 34963 ft | 465 kts | 55° |
| 2026-05-08 15:28 | 47.70598 | -9.59200 | 34965 ft | 465 kts | 55° |
| 2026-05-08 15:29 | 47.74751 | -9.51843 | 34967 ft | 465 kts | 55° |
| 2026-05-08 15:29 | 47.78903 | -9.44466 | 34990 ft | 465 kts | 55° |
| 2026-05-08 15:30 | 47.83017 | -9.37137 | 34995 ft | 465 kts | 55° |
| 2026-05-08 15:30 | 47.87166 | -9.29725 | 34991 ft | 466 kts | 55° |
| 2026-05-08 15:31 | 47.91302 | -9.22317 | 34993 ft | 465 kts | 55° |
| 2026-05-08 15:31 | 47.95438 | -9.14886 | 34994 ft | 466 kts | 55° |
| 2026-05-08 15:32 | 47.99571 | -9.07442 | 34996 ft | 466 kts | 55° |
| 2026-05-08 15:32 | 48.03707 | -8.99970 | 34997 ft | 469 kts | 55° |
| 2026-05-08 15:33 | 48.07880 | -8.92413 | 34999 ft | 473 kts | 54° |
| 2026-05-08 15:33 | 48.12060 | -8.84822 | 34999 ft | 472 kts | 54° |
| 2026-05-08 15:34 | 48.16229 | -8.77228 | 34999 ft | 472 kts | 54° |
| 2026-05-08 15:34 | 48.20376 | -8.69654 | 34999 ft | 473 kts | 54° |
| 2026-05-08 15:35 | 48.24536 | -8.62034 | 34998 ft | 472 kts | 54° |
| 2026-05-08 15:35 | 48.28693 | -8.54397 | 34997 ft | 472 kts | 54° |
| 2026-05-08 15:36 | 48.32142 | -8.48045 | 34997 ft | 472 kts | 54° |
| 2026-05-08 15:36 | 48.36980 | -8.39108 | 34993 ft | 472 kts | 54° |
| 2026-05-08 15:37 | 48.41124 | -8.31430 | 34989 ft | 472 kts | 54° |
| 2026-05-08 15:37 | 48.45261 | -8.23744 | 34988 ft | 472 kts | 54° |
| 2026-05-08 15:38 | 48.49387 | -8.16055 | 34990 ft | 472 kts | 54° |
| 2026-05-08 15:38 | 48.53509 | -8.08351 | 34996 ft | 472 kts | 54° |
| 2026-05-08 15:39 | 48.57601 | -8.00663 | 34998 ft | 472 kts | 57° |
| 2026-05-08 15:39 | 48.60841 | -7.92155 | 35001 ft | 467 kts | 66° |
| 2026-05-08 15:40 | 48.63913 | -7.83477 | 35001 ft | 468 kts | 65° |
| 2026-05-08 15:40 | 48.66994 | -7.74811 | 35001 ft | 468 kts | 65° |
| 2026-05-08 15:41 | 48.70077 | -7.66132 | 35002 ft | 468 kts | 65° |
| 2026-05-08 15:41 | 48.73155 | -7.57447 | 35002 ft | 468 kts | 65° |
| 2026-05-08 15:42 | 48.76233 | -7.48734 | 35003 ft | 469 kts | 65° |
| 2026-05-08 15:42 | 48.79306 | -7.40003 | 35003 ft | 470 kts | 65° |
| 2026-05-08 15:43 | 48.82378 | -7.31245 | 35004 ft | 470 kts | 65° |
| 2026-05-08 15:43 | 48.85443 | -7.22476 | 35004 ft | 470 kts | 65° |
| 2026-05-08 15:44 | 48.88499 | -7.13701 | 35005 ft | 471 kts | 65° |
| 2026-05-08 15:44 | 48.91556 | -7.04896 | 35005 ft | 470 kts | 65° |
| 2026-05-08 15:45 | 48.94607 | -6.96072 | 35000 ft | 471 kts | 65° |
| 2026-05-08 15:45 | 48.97132 | -6.88747 | 35001 ft | 471 kts | 65° |
| 2026-05-08 15:46 | 49.00170 | -6.79908 | 35001 ft | 471 kts | 65° |
| 2026-05-08 15:46 | 49.03202 | -6.71053 | 35002 ft | 471 kts | 65° |
| 2026-05-08 15:47 | 49.06228 | -6.62186 | 35003 ft | 472 kts | 66° |
| 2026-05-08 15:47 | 49.09247 | -6.53307 | 35003 ft | 471 kts | 65° |
| 2026-05-08 15:48 | 49.13767 | -6.39959 | 35004 ft | 472 kts | 65° |
| 2026-05-08 15:49 | 49.16775 | -6.31032 | 35005 ft | 473 kts | 65° |
| 2026-05-08 15:49 | 49.19776 | -6.22100 | 35007 ft | 473 kts | 65° |
| 2026-05-08 15:50 | 49.22759 | -6.13186 | 35008 ft | 473 kts | 65° |
| 2026-05-08 15:50 | 49.25753 | -6.04208 | 35009 ft | 473 kts | 65° |
| 2026-05-08 15:51 | 49.28740 | -5.95219 | 35009 ft | 474 kts | 65° |
| 2026-05-08 15:51 | 49.31732 | -5.86185 | 35009 ft | 475 kts | 65° |
| 2026-05-08 15:52 | 49.34717 | -5.77136 | 35009 ft | 475 kts | 65° |
| 2026-05-08 15:52 | 49.37696 | -5.68076 | 35009 ft | 475 kts | 65° |
| 2026-05-08 15:53 | 49.40668 | -5.59004 | 35009 ft | 476 kts | 65° |
| 2026-05-08 15:53 | 49.43635 | -5.49914 | 35009 ft | 476 kts | 65° |
| 2026-05-08 15:54 | 49.46589 | -5.40827 | 35010 ft | 476 kts | 65° |
| 2026-05-08 15:54 | 49.49524 | -5.31772 | 35011 ft | 476 kts | 65° |
| 2026-05-08 15:55 | 49.52469 | -5.22648 | 35011 ft | 476 kts | 65° |
| 2026-05-08 15:55 | 49.56879 | -5.08927 | 35010 ft | 477 kts | 65° |
| 2026-05-08 15:56 | 49.59812 | -4.99759 | 35011 ft | 478 kts | 66° |
| 2026-05-08 15:56 | 49.62742 | -4.90563 | 35012 ft | 478 kts | 65° |
| 2026-05-08 15:57 | 49.65669 | -4.81347 | 35012 ft | 478 kts | 65° |
| 2026-05-08 15:57 | 49.68593 | -4.72103 | 35013 ft | 480 kts | 65° |
| 2026-05-08 15:58 | 49.71530 | -4.62835 | 35011 ft | 481 kts | 63° |
| 2026-05-08 15:58 | 49.73357 | -4.58512 | 35010 ft | 482 kts | 52° |
| 2026-05-08 15:58 | 49.75470 | -4.54475 | 35019 ft | 483 kts | 52° |
| 2026-05-08 15:59 | 49.79781 | -4.46494 | 35018 ft | 483 kts | 49° |
| 2026-05-08 15:59 | 49.84191 | -4.38631 | 35014 ft | 485 kts | 49° |
| 2026-05-08 16:00 | 49.88605 | -4.30771 | 35010 ft | 480 kts | 49° |
| 2026-05-08 16:00 | 49.92991 | -4.22949 | 35008 ft | 481 kts | 49° |
| 2026-05-08 16:01 | 49.97351 | -4.15148 | 35012 ft | 481 kts | 49° |
| 2026-05-08 16:01 | 50.01732 | -4.07287 | 35017 ft | 480 kts | 49° |
| 2026-05-08 16:02 | 50.06099 | -3.99426 | 35020 ft | 480 kts | 49° |
| 2026-05-08 16:02 | 50.10462 | -3.91546 | 35024 ft | 480 kts | 49° |
| 2026-05-08 16:03 | 50.14821 | -3.83650 | 35029 ft | 480 kts | 49° |
| 2026-05-08 16:03 | 50.19173 | -3.75741 | 35031 ft | 480 kts | 49° |
| 2026-05-08 16:04 | 50.23522 | -3.67813 | 35033 ft | 480 kts | 49° |
| 2026-05-08 16:04 | 50.27853 | -3.59894 | 35036 ft | 479 kts | 49° |
| 2026-05-08 16:05 | 50.32175 | -3.51966 | 35038 ft | 479 kts | 49° |
| 2026-05-08 16:05 | 50.34305 | -3.48048 | 35036 ft | 466 kts | 49° |
| 2026-05-08 16:05 | 50.36409 | -3.44175 | 35040 ft | 469 kts | 49° |
| 2026-05-08 16:06 | 50.40687 | -3.36282 | 35045 ft | 480 kts | 49° |
| 2026-05-08 16:06 | 50.45007 | -3.28283 | 35046 ft | 483 kts | 49° |
| 2026-05-08 16:07 | 50.49341 | -3.20232 | 35047 ft | 483 kts | 49° |
| 2026-05-08 16:07 | 50.53677 | -3.12156 | 35048 ft | 482 kts | 48° |
| 2026-05-08 16:08 | 50.57994 | -3.04088 | 35049 ft | 483 kts | 48° |
| 2026-05-08 16:08 | 50.62314 | -2.95988 | 35049 ft | 483 kts | 48° |
| 2026-05-08 16:09 | 50.65899 | -2.89248 | 35049 ft | 482 kts | 48° |
| 2026-05-08 16:09 | 50.70921 | -2.79775 | 35049 ft | 482 kts | 48° |
| 2026-05-08 16:10 | 50.75189 | -2.71698 | 35050 ft | 481 kts | 48° |
| 2026-05-08 16:10 | 50.79470 | -2.63570 | 35051 ft | 481 kts | 48° |
| 2026-05-08 16:11 | 50.83744 | -2.55428 | 35052 ft | 481 kts | 48° |
| 2026-05-08 16:11 | 50.88012 | -2.47275 | 35052 ft | 480 kts | 48° |
| 2026-05-08 16:12 | 50.92250 | -2.39148 | 34910 ft | 467 kts | 48° |
| 2026-05-08 16:12 | 50.94277 | -2.35251 | 34817 ft | 450 kts | 48° |
| 2026-05-08 16:12 | 50.96239 | -2.31474 | 34508 ft | 440 kts | 48° |
| 2026-05-08 16:13 | 50.98200 | -2.27694 | 33561 ft | 447 kts | 47° |
| 2026-05-08 16:13 | 51.00165 | -2.23906 | 32993 ft | 443 kts | 47° |
| 2026-05-08 16:13 | 51.02129 | -2.20111 | 32218 ft | 445 kts | 48° |
| 2026-05-08 16:13 | 51.04089 | -2.16318 | 31423 ft | 445 kts | 48° |
| 2026-05-08 16:14 | 51.06048 | -2.12519 | 30634 ft | 445 kts | 48° |
| 2026-05-08 16:14 | 51.08011 | -2.08711 | 29885 ft | 443 kts | 48° |
| 2026-05-08 16:14 | 51.09973 | -2.04898 | 28998 ft | 445 kts | 49° |
| 2026-05-08 16:14 | 51.11924 | -2.01101 | 28006 ft | 446 kts | 49° |
| 2026-05-08 16:15 | 51.13883 | -1.97280 | 27229 ft | 440 kts | 49° |
| 2026-05-08 16:15 | 51.15800 | -1.93531 | 26351 ft | 435 kts | 49° |
| 2026-05-08 16:15 | 51.17694 | -1.89824 | 25610 ft | 427 kts | 50° |
| 2026-05-08 16:15 | 51.19561 | -1.86162 | 24828 ft | 422 kts | 50° |
| 2026-05-08 16:16 | 51.21398 | -1.82555 | 23980 ft | 417 kts | 50° |
| 2026-05-08 16:16 | 51.23209 | -1.78993 | 23209 ft | 411 kts | 50° |
| 2026-05-08 16:16 | 51.24997 | -1.75470 | 22489 ft | 405 kts | 51° |
| 2026-05-08 16:16 | 51.26756 | -1.72002 | 21751 ft | 399 kts | 51° |
| 2026-05-08 16:17 | 51.28497 | -1.68564 | 21028 ft | 394 kts | 51° |
| 2026-05-08 16:17 | 51.29630 | -1.66324 | 20514 ft | 392 kts | 51° |
| 2026-05-08 16:17 | 51.31881 | -1.61870 | 19576 ft | 385 kts | 52° |
| 2026-05-08 16:17 | 51.33376 | -1.58370 | 18865 ft | 379 kts | 65° |
| 2026-05-08 16:18 | 51.34129 | -1.54399 | 18235 ft | 368 kts | 85° |
| 2026-05-08 16:18 | 51.34071 | -1.50409 | 17783 ft | 354 kts | 99° |
| 2026-05-08 16:18 | 51.33730 | -1.46556 | 17572 ft | 345 kts | 100° |
| 2026-05-08 16:18 | 51.33398 | -1.42790 | 17396 ft | 339 kts | 100° |
| 2026-05-08 16:19 | 51.33080 | -1.39061 | 17226 ft | 338 kts | 100° |
| 2026-05-08 16:19 | 51.32773 | -1.35337 | 17055 ft | 338 kts | 99° |
| 2026-05-08 16:19 | 51.32474 | -1.31612 | 16887 ft | 337 kts | 99° |
| 2026-05-08 16:19 | 51.32179 | -1.27899 | 16721 ft | 336 kts | 99° |
| 2026-05-08 16:20 | 51.31888 | -1.24190 | 16553 ft | 335 kts | 99° |
| 2026-05-08 16:20 | 51.31632 | -1.20493 | 16387 ft | 336 kts | 96° |
| 2026-05-08 16:20 | 51.31652 | -1.16758 | 16160 ft | 338 kts | 88° |
| 2026-05-08 16:20 | 51.32028 | -1.13050 | 15870 ft | 336 kts | 80° |
| 2026-05-08 16:21 | 51.32537 | -1.09415 | 15690 ft | 334 kts | 79° |
| 2026-05-08 16:21 | 51.33057 | -1.05804 | 15522 ft | 334 kts | 79° |
| 2026-05-08 16:21 | 51.33587 | -1.02189 | 15353 ft | 333 kts | 78° |
| 2026-05-08 16:21 | 51.34120 | -0.98576 | 15186 ft | 333 kts | 78° |
| 2026-05-08 16:22 | 51.34654 | -0.94982 | 15015 ft | 332 kts | 78° |
| 2026-05-08 16:22 | 51.35187 | -0.91393 | 14849 ft | 331 kts | 78° |
| 2026-05-08 16:22 | 51.35719 | -0.87817 | 14680 ft | 330 kts | 78° |
| 2026-05-08 16:22 | 51.36250 | -0.84254 | 14513 ft | 329 kts | 78° |
| 2026-05-08 16:23 | 51.36779 | -0.80693 | 14346 ft | 328 kts | 78° |
| 2026-05-08 16:23 | 51.37220 | -0.77721 | 14209 ft | 327 kts | 78° |
| 2026-05-08 16:23 | 51.37738 | -0.74228 | 14046 ft | 326 kts | 78° |
| 2026-05-08 16:23 | 51.38259 | -0.70705 | 13879 ft | 325 kts | 78° |
| 2026-05-08 16:24 | 51.38779 | -0.67186 | 13720 ft | 324 kts | 78° |
| 2026-05-08 16:24 | 51.39297 | -0.63670 | 13550 ft | 324 kts | 78° |
| 2026-05-08 16:24 | 51.39811 | -0.60171 | 13386 ft | 323 kts | 78° |
| 2026-05-08 16:24 | 51.40324 | -0.56673 | 13222 ft | 322 kts | 78° |
| 2026-05-08 16:25 | 51.40836 | -0.53177 | 13059 ft | 321 kts | 78° |
| 2026-05-08 16:25 | 51.41342 | -0.49707 | 12897 ft | 320 kts | 78° |
| 2026-05-08 16:25 | 51.41770 | -0.46776 | 12763 ft | 320 kts | 78° |
| 2026-05-08 16:25 | 51.42272 | -0.43320 | 12604 ft | 319 kts | 78° |
| 2026-05-08 16:26 | 51.42773 | -0.39867 | 12442 ft | 318 kts | 78° |
| 2026-05-08 16:26 | 51.43563 | -0.36559 | 12271 ft | 319 kts | 60° |
| 2026-05-08 16:26 | 51.45044 | -0.33914 | 12104 ft | 321 kts | 39° |
| 2026-05-08 16:26 | 51.46984 | -0.32151 | 11942 ft | 321 kts | 26° |
| 2026-05-08 16:27 | 51.48996 | -0.30620 | 11774 ft | 320 kts | 26° |
| 2026-05-08 16:27 | 51.51005 | -0.29099 | 11611 ft | 319 kts | 26° |
| 2026-05-08 16:27 | 51.53014 | -0.27573 | 11449 ft | 319 kts | 26° |
| 2026-05-08 16:27 | 51.54992 | -0.26065 | 11289 ft | 318 kts | 26° |
| 2026-05-08 16:28 | 51.57014 | -0.24520 | 11124 ft | 317 kts | 26° |
| 2026-05-08 16:28 | 51.58987 | -0.23010 | 11011 ft | 310 kts | 26° |
| 2026-05-08 16:28 | 51.60905 | -0.21541 | 10879 ft | 301 kts | 26° |
| 2026-05-08 16:28 | 51.62762 | -0.20115 | 10666 ft | 297 kts | 26° |
| 2026-05-08 16:29 | 51.64623 | -0.18684 | 10511 ft | 296 kts | 26° |
| 2026-05-08 16:29 | 51.66483 | -0.17253 | 10362 ft | 296 kts | 26° |
| 2026-05-08 16:29 | 51.68341 | -0.15822 | 10212 ft | 295 kts | 26° |
| 2026-05-08 16:29 | 51.70196 | -0.14392 | 10063 ft | 296 kts | 26° |
| 2026-05-08 16:30 | 51.72057 | -0.12956 | 9914 ft | 295 kts | 26° |
| 2026-05-08 16:30 | 51.73905 | -0.11528 | 9766 ft | 295 kts | 26° |
| 2026-05-08 16:30 | 51.75767 | -0.10144 | 9615 ft | 294 kts | 24° |
| 2026-05-08 16:30 | 51.77643 | -0.08824 | 9466 ft | 294 kts | 24° |
| 2026-05-08 16:31 | 51.79518 | -0.07510 | 9320 ft | 293 kts | 24° |
| 2026-05-08 16:31 | 51.80757 | -0.06642 | 9221 ft | 293 kts | 24° |
| 2026-05-08 16:31 | 51.82982 | -0.05082 | 9048 ft | 293 kts | 24° |
| 2026-05-08 16:31 | 51.84850 | -0.03772 | 8900 ft | 293 kts | 24° |
| 2026-05-08 16:32 | 51.86719 | -0.02460 | 8752 ft | 292 kts | 24° |
| 2026-05-08 16:32 | 51.88579 | -0.01154 | 8607 ft | 291 kts | 24° |
| 2026-05-08 16:32 | 51.90429 | 0.00146 | 8461 ft | 290 kts | 24° |
| 2026-05-08 16:32 | 51.92234 | 0.01422 | 8330 ft | 282 kts | 24° |
| 2026-05-08 16:33 | 51.93445 | 0.02276 | 8222 ft | 281 kts | 23° |
| 2026-05-08 16:33 | 51.95239 | 0.03539 | 8076 ft | 280 kts | 23° |
| 2026-05-08 16:33 | 51.97027 | 0.04793 | 7933 ft | 279 kts | 22° |
| 2026-05-08 16:33 | 51.98875 | 0.05745 | 7769 ft | 279 kts | 12° |
| 2026-05-08 16:34 | 52.00773 | 0.06122 | 7630 ft | 268 kts | 4° |
| 2026-05-08 16:34 | 52.02594 | 0.06288 | 7512 ft | 256 kts | 3° |
| 2026-05-08 16:34 | 52.04338 | 0.06426 | 7332 ft | 249 kts | 2° |
| 2026-05-08 16:34 | 52.06062 | 0.06548 | 7042 ft | 244 kts | 2° |
| 2026-05-08 16:35 | 52.07758 | 0.06660 | 6908 ft | 244 kts | 2° |
| 2026-05-08 16:35 | 52.09431 | 0.06706 | 6754 ft | 245 kts | 354° |
| 2026-05-08 16:35 | 52.11013 | 0.05790 | 6638 ft | 244 kts | 327° |
| 2026-05-08 16:35 | 52.12167 | 0.03794 | 6568 ft | 244 kts | 300° |
| 2026-05-08 16:36 | 52.12638 | 0.01177 | 6493 ft | 242 kts | 272° |
| 2026-05-08 16:36 | 52.12328 | -0.01482 | 6410 ft | 240 kts | 244° |
| 2026-05-08 16:36 | 52.11337 | -0.03572 | 6340 ft | 231 kts | 217° |
| 2026-05-08 16:36 | 52.09899 | -0.04611 | 6265 ft | 228 kts | 189° |
| 2026-05-08 16:37 | 52.08317 | -0.04546 | 6213 ft | 228 kts | 176° |
| 2026-05-08 16:37 | 52.06730 | -0.04502 | 6137 ft | 228 kts | 181° |
| 2026-05-08 16:37 | 52.05155 | -0.04657 | 6057 ft | 227 kts | 185° |
| 2026-05-08 16:37 | 52.03582 | -0.04942 | 6010 ft | 226 kts | 187° |
| 2026-05-08 16:38 | 52.02020 | -0.05309 | 6001 ft | 227 kts | 188° |
| 2026-05-08 16:38 | 52.00493 | -0.06003 | 5806 ft | 227 kts | 194° |
| 2026-05-08 16:38 | 51.98957 | -0.06019 | 5667 ft | 229 kts | 166° |
| 2026-05-08 16:38 | 51.97533 | -0.04845 | 5403 ft | 228 kts | 146° |
| 2026-05-08 16:39 | 51.96257 | -0.03332 | 5104 ft | 226 kts | 144° |
| 2026-05-08 16:39 | 51.95019 | -0.01838 | 4827 ft | 225 kts | 144° |
| 2026-05-08 16:39 | 51.93773 | -0.00321 | 4551 ft | 224 kts | 143° |
| 2026-05-08 16:39 | 51.92527 | 0.01200 | 4277 ft | 225 kts | 143° |
| 2026-05-08 16:40 | 51.91206 | 0.02537 | 3981 ft | 225 kts | 159° |
| 2026-05-08 16:40 | 51.89656 | 0.02887 | 3735 ft | 225 kts | 175° |
| 2026-05-08 16:40 | 51.88094 | 0.02986 | 3438 ft | 224 kts | 176° |
| 2026-05-08 16:40 | 51.86535 | 0.03060 | 3166 ft | 223 kts | 176° |
| 2026-05-08 16:41 | 51.85001 | 0.02790 | 2911 ft | 224 kts | 198° |
| 2026-05-08 16:41 | 51.83683 | 0.01416 | 2864 ft | 229 kts | 214° |
| 2026-05-08 16:41 | 51.82289 | 0.00232 | 2791 ft | 226 kts | 201° |
| 2026-05-08 16:42 | 51.79425 | -0.01723 | 2625 ft | 221 kts | 191° |
| 2026-05-08 16:42 | 51.77920 | -0.01659 | 2533 ft | 217 kts | 162° |
| 2026-05-08 16:42 | 51.76662 | -0.00381 | 2528 ft | 217 kts | 134° |
| 2026-05-08 16:42 | 51.75971 | 0.01761 | 2506 ft | 219 kts | 104° |
| 2026-05-08 16:43 | 51.76002 | 0.04197 | 2504 ft | 220 kts | 78° |
| 2026-05-08 16:43 | 51.76731 | 0.06338 | 2504 ft | 218 kts | 50° |
| 2026-05-08 16:43 | 51.77849 | 0.07817 | 2504 ft | 196 kts | 41° |
| 2026-05-08 16:43 | 51.78852 | 0.09145 | 2519 ft | 176 kts | 43° |
| 2026-05-08 16:44 | 51.79717 | 0.10369 | 2477 ft | 159 kts | 45° |
| 2026-05-08 16:44 | 51.80519 | 0.11545 | 2264 ft | 152 kts | 45° |
| 2026-05-08 16:44 | 51.81286 | 0.12686 | 2060 ft | 149 kts | 46° |
| 2026-05-08 16:44 | 51.82051 | 0.13830 | 1870 ft | 149 kts | 46° |
| 2026-05-08 16:45 | 51.82811 | 0.14969 | 1676 ft | 149 kts | 46° |
| 2026-05-08 16:45 | 51.83560 | 0.16089 | 1483 ft | 148 kts | 45° |
| 2026-05-08 16:45 | 51.84345 | 0.17202 | 1285 ft | 148 kts | 42° |
| 2026-05-08 16:45 | 51.85111 | 0.18279 | 1097 ft | 147 kts | 44° |
| 2026-05-08 16:46 | 51.85844 | 0.19432 | 912 ft | 147 kts | 47° |
| 2026-05-08 16:46 | 51.86589 | 0.20560 | 703 ft | 146 kts | 45° |
| 2026-05-08 16:46 | 51.87324 | 0.21695 | 510 ft | 145 kts | 46° |
| 2026-05-08 16:46 | 51.88049 | 0.22815 | 367 ft | 141 kts | 44° |
| 2026-05-08 16:47 | 51.88664 | 0.23738 | 363 ft | 93 kts | 45° |
| 2026-05-08 16:47 | 51.89009 | 0.24257 | 363 ft | 43 kts | 43° |
| 2026-05-08 16:47 | 51.89137 | 0.24451 | 363 ft | 19 kts | 43° |
| 2026-05-08 16:47 | 51.89221 | 0.24585 | 363 ft | 13 kts | 66° |
| 2026-05-08 16:48 | 51.89220 | 0.24726 | 363 ft | 13 kts | 112° |
| 2026-05-08 16:48 | 51.89176 | 0.24805 | 363 ft | 5 kts | 130° |
| 2026-05-08 16:48 | 51.89157 | 0.24842 | 363 ft | 4 kts | 130° |
| 2026-05-08 16:48 | 51.89139 | 0.24877 | 363 ft | 4 kts | 128° |
| 2026-05-08 16:49 | 51.89133 | 0.24919 | 363 ft | 4 kts | 69° |
| 2026-05-08 16:49 | 51.89151 | 0.24953 | 363 ft | 5 kts | 46° |
| 2026-05-08 16:49 | 51.89191 | 0.25020 | 363 ft | 11 kts | 46° |
| 2026-05-08 16:49 | 51.89226 | 0.25157 | 363 ft | 16 kts | 108° |
| 2026-05-08 16:50 | 51.89161 | 0.25309 | 363 ft | 14 kts | 121° |
| 2026-05-08 16:50 | 51.89102 | 0.25422 | 363 ft | 13 kts | 131° |
| 2026-05-08 16:50 | 51.89050 | 0.25512 | 363 ft | 6 kts | 134° |
| 2026-05-08 16:50 | 51.89033 | 0.25542 | 363 ft | 4 kts | 126° |
| 2026-05-08 16:51 | 51.89039 | 0.25571 | 363 ft | 3 kts | 33° |
| 2026-05-08 16:51 | 51.89053 | 0.25591 | 363 ft | 3 kts | 43° |
| 2026-05-08 16:51 | 51.89063 | 0.25605 | 363 ft | 0 kts | 43° |